Time;durP1;ratioP1;P1;durP2;ratioP2;P2;SDS_P1;SDS_P2;PMS_P1;PMS_P2;Temp;Humidity;BMP_temperature;BMP_pressure;BME280_temperature;BME280_humidity;BME280_pressure;Samples;Min_cycle;Max_cycle;Signal;HPM_P1;HPM_P2
2023/04/25 00:02:00;;;;;;;20.23;7.50;;;;;;;-144.73;100.00;54461.06;5014723;28;20025;-73
2023/04/25 00:04:27;;;;;;;17.77;7.95;;;;;;;-144.73;100.00;54391.28;5013843;28;20025;-74
2023/04/25 00:06:55;;;;;;;24.05;8.95;;;;;;;-144.73;100.00;54428.22;5031189;28;20037;-73
2023/04/25 00:09:22;;;;;;;25.85;9.30;;;;;;;-144.73;100.00;54428.22;5013606;28;20420;-74
2023/04/25 00:11:47;;;;;;;23.80;9.10;;;;;;;-144.73;100.00;54461.06;5031273;28;20600;-75
2023/04/25 00:14:14;;;;;;;26.77;8.93;;;;;;;-144.73;100.00;54440.53;5030103;28;20025;-74
2023/04/25 00:16:40;;;;;;;27.30;8.48;;;;;;;-144.73;100.00;54428.22;5030511;28;20029;-74
2023/04/25 00:19:07;;;;;;;25.52;8.98;;;;;;;-144.73;100.00;54432.31;5031334;28;20021;-74
2023/04/25 00:21:33;;;;;;;30.52;9.57;;;;;;;-144.73;100.00;54436.44;5030503;28;20017;-74
2023/04/25 00:23:59;;;;;;;37.38;10.50;;;;;;;-144.73;100.00;54448.75;5031540;28;20029;-74
2023/04/25 00:26:24;;;;;;;33.55;7.75;;;;;;;-144.73;100.00;54436.44;5031010;28;20045;-74
2023/04/25 00:28:50;;;;;;;47.33;8.65;;;;;;;-144.73;100.00;54442.59;5030437;28;20025;-75
2023/04/25 00:31:15;;;;;;;31.42;8.00;;;;;;;-144.73;100.00;54452.84;5013405;28;20053;-74
2023/04/25 00:33:43;;;;;;;47.92;8.18;;;;;;;-144.73;100.00;54411.81;5030425;28;20029;-74
2023/04/25 00:36:09;;;;;;;53.78;9.68;;;;;;;-144.73;100.00;54420.00;5013157;28;20117;-74
2023/04/25 00:38:34;;;;;;;48.38;8.68;;;;;;;-144.73;100.00;54428.22;5030736;28;20059;-74
2023/04/25 00:41:00;;;;;;;36.25;7.43;;;;;;;-144.73;100.00;54399.50;5030688;28;20404;-73
2023/04/25 00:43:27;;;;;;;59.55;7.88;;;;;;;-144.73;100.00;54420.00;5029852;28;20029;-73
2023/04/25 00:45:52;;;;;;;48.20;8.98;;;;;;;-144.73;100.00;54424.13;5029716;28;20030;-73
2023/04/25 00:48:19;;;;;;;31.25;7.25;;;;;;;-144.73;100.00;54428.22;5029686;28;20072;-73
2023/04/25 00:50:52;;;;;;;42.15;6.70;;;;;;;-144.73;100.00;54448.75;5012950;28;20574;-73
2023/04/25 00:53:18;;;;;;;53.83;8.35;;;;;;;-144.73;100.00;54420.00;5029810;28;20030;-73
2023/04/25 00:55:43;;;;;;;58.28;7.85;;;;;;;-144.73;100.00;54395.38;5029275;28;20040;-73
2023/04/25 00:58:09;;;;;;;46.85;6.72;;;;;;;-144.73;100.00;54407.69;5030965;28;20092;-73
2023/04/25 01:00:34;;;;;;;48.03;7.07;;;;;;;-144.73;100.00;54395.38;5028602;28;20117;-73
2023/04/25 01:03:00;;;;;;;58.33;8.75;;;;;;;-144.73;100.00;54444.66;5013654;28;20113;-73
2023/04/25 01:05:25;;;;;;;46.85;6.13;;;;;;;-144.73;100.00;54397.44;5029047;28;20033;-73
2023/04/25 01:07:51;;;;;;;48.42;7.38;;;;;;;-144.73;100.00;54399.50;5015782;28;20040;-73
2023/04/25 01:10:16;;;;;;;54.63;6.60;;;;;;;-144.73;100.00;54420.00;5036709;28;20109;-73
2023/04/25 01:12:42;;;;;;;62.25;8.63;;;;;;;-144.73;100.00;54450.81;5036382;28;20021;-73
2023/04/25 01:15:07;;;;;;;49.15;7.35;;;;;;;-144.73;100.00;54465.16;5015025;28;20116;-73
2023/04/25 01:17:34;;;;;;;45.50;7.45;;;;;;;-144.73;100.00;54424.13;5032967;28;20049;-73
2023/04/25 01:20:05;;;;;;;43.88;7.32;;;;;;;-144.73;100.00;54411.81;5016029;28;20039;-73
2023/04/25 01:22:32;;;;;;;58.20;8.40;;;;;;;-144.73;100.00;54446.69;5016835;28;20022;-72
2023/04/25 01:24:58;;;;;;;55.40;6.97;;;;;;;-144.73;100.00;54473.38;5033889;28;20044;-73
2023/04/25 01:27:25;;;;;;;42.53;7.18;;;;;;;-144.73;100.00;54393.34;5016914;28;20021;-73
2023/04/25 01:29:50;;;;;;;45.97;7.32;;;;;;;-144.73;100.00;54448.75;5033481;28;20041;-72
2023/04/25 01:32:16;;;;;;;41.80;7.63;;;;;;;-144.73;100.00;54444.66;5016398;28;20086;-72
2023/04/25 01:34:42;;;;;;;47.63;8.38;;;;;;;-144.73;100.00;54473.38;5033388;28;20040;-73
2023/04/25 01:37:07;;;;;;;54.90;8.02;;;;;;;-144.73;100.00;54424.13;5023027;28;20040;-72
2023/04/25 01:39:33;;;;;;;55.80;7.05;;;;;;;-144.73;100.00;54450.81;5030980;28;20034;-73
2023/04/25 01:41:59;;;;;;;59.70;8.70;;;;;;;-144.73;100.00;54461.06;5033267;28;20092;-73
2023/04/25 01:44:25;;;;;;;46.05;7.30;;;;;;;-144.73;100.00;54436.44;5011136;28;20029;-73
2023/04/25 01:46:51;;;;;;;49.78;7.95;;;;;;;-144.73;100.00;54432.31;5016144;28;20025;-73
2023/04/25 01:49:16;;;;;;;48.88;7.47;;;;;;;-144.73;100.00;54452.84;5028518;28;20037;-73
2023/04/25 01:51:42;;;;;;;39.03;7.38;;;;;;;-144.73;100.00;54477.47;5015667;28;20583;-73
2023/04/25 01:54:10;;;;;;;44.53;8.02;;;;;;;-144.73;100.00;54463.13;5014680;28;20029;-72
2023/04/25 01:56:37;;;;;;;49.92;7.45;;;;;;;-144.73;100.00;54424.13;5031667;28;20073;-73
2023/04/25 01:59:04;;;;;;;50.60;6.55;;;;;;;-144.73;100.00;54411.81;5031822;28;20021;-73
2023/04/25 02:01:29;;;;;;;46.00;8.40;;;;;;;-144.73;100.00;54461.06;5031630;28;20033;-72
2023/04/25 02:03:55;;;;;;;58.53;7.72;;;;;;;-144.73;100.00;54395.38;5014667;28;20038;-72
2023/04/25 02:06:20;;;;;;;45.40;8.63;;;;;;;-144.73;100.00;54391.28;5032032;28;20041;-73
2023/04/25 02:08:46;;;;;;;49.58;7.75;;;;;;;-144.73;100.00;54444.66;5014955;28;20037;-73
2023/04/25 02:11:11;;;;;;;43.97;7.22;;;;;;;-144.73;100.00;54411.81;5012605;28;20044;-73
2023/04/25 02:13:36;;;;;;;47.22;6.50;;;;;;;-144.73;100.00;54428.22;5015325;28;20104;-73
2023/04/25 02:16:02;;;;;;;53.63;8.52;;;;;;;-144.73;100.00;54434.38;5031957;28;20041;-72
2023/04/25 02:18:27;;;;;;;68.90;7.05;;;;;;;-144.73;100.00;54434.38;5032056;28;20052;-73
2023/04/25 02:20:53;;;;;;;36.95;7.10;;;;;;;-144.73;100.00;54426.16;5031721;28;20049;-73
2023/04/25 02:23:21;;;;;;;55.63;7.70;;;;;;;-144.73;100.00;54389.22;5014623;28;20056;-73
2023/04/25 02:25:46;;;;;;;51.92;6.82;;;;;;;-144.73;100.00;54424.13;5019775;28;20443;-73
2023/04/25 02:28:12;;;;;;;44.85;6.22;;;;;;;-144.73;100.00;54415.91;5014762;28;20033;-73
2023/04/25 02:30:37;;;;;;;52.80;7.78;;;;;;;-144.73;100.00;54428.22;5031754;28;20113;-74
2023/04/25 02:33:03;;;;;;;49.72;7.32;;;;;;;-144.73;100.00;54436.44;5012266;28;20026;-74
2023/04/25 02:35:28;;;;;;;44.08;7.90;;;;;;;-144.73;100.00;54448.75;5030642;28;20034;-73
2023/04/25 02:37:54;;;;;;;48.17;6.35;;;;;;;-144.73;100.00;54415.91;5032326;28;20033;-73
2023/04/25 02:40:19;;;;;;;48.90;7.03;;;;;;;-144.73;100.00;54422.06;5008940;28;20083;-74
2023/04/25 02:42:48;;;;;;;41.83;5.97;;;;;;;-144.73;100.00;54440.53;5015197;28;20076;-74
2023/04/25 02:45:13;;;;;;;54.38;7.20;;;;;;;-144.73;100.00;54432.31;5029342;28;20037;-74
2023/04/25 02:47:39;;;;;;;60.47;8.20;;;;;;;-144.73;100.00;54436.44;5032549;28;20021;-74
2023/04/25 02:50:05;;;;;;;37.85;6.88;;;;;;;-144.73;100.00;54411.81;5010720;28;20038;-74
2023/04/25 02:52:30;;;;;;;44.25;7.38;;;;;;;-144.73;100.00;54440.53;5033273;28;20029;-74
2023/04/25 02:54:56;;;;;;;47.55;7.10;;;;;;;-144.73;100.00;54444.66;5008831;28;20033;-74
2023/04/25 02:57:21;;;;;;;40.20;7.95;;;;;;;-144.73;100.00;54411.81;5006129;28;20033;-74
2023/04/25 02:59:47;;;;;;;40.65;6.63;;;;;;;-144.73;100.00;54448.75;5013613;28;20048;-74
2023/04/25 03:02:12;;;;;;;56.25;9.43;;;;;;;-144.73;100.00;54440.53;5015178;28;20476;-74
2023/04/25 03:04:37;;;;;;;40.08;7.15;;;;;;;-144.73;100.00;54417.97;5013717;28;20033;-74
2023/04/25 03:07:04;;;;;;;62.25;8.55;;;;;;;-144.73;100.00;54444.66;5030491;28;20404;-74
2023/04/25 03:09:29;;;;;;;46.08;6.93;;;;;;;-144.73;100.00;54444.66;5028173;28;20033;-74
2023/04/25 03:11:54;;;;;;;43.03;7.13;;;;;;;-144.73;100.00;54452.84;5014258;28;20036;-74
2023/04/25 03:14:20;;;;;;;46.53;6.20;;;;;;;-144.73;100.00;54438.50;5030904;28;20116;-74
2023/04/25 03:16:45;;;;;;;49.05;7.47;;;;;;;-144.73;100.00;54415.91;5014380;28;20052;-74
2023/04/25 03:19:10;;;;;;;43.08;8.38;;;;;;;-144.73;100.00;54424.13;5028845;28;20025;-74
2023/04/25 03:21:36;;;;;;;57.38;6.95;;;;;;;-144.73;100.00;54434.38;5031805;28;20034;-74
2023/04/25 03:24:03;;;;;;;34.50;6.13;;;;;;;-144.73;100.00;54432.31;5029708;28;20033;-74
2023/04/25 03:26:29;;;;;;;39.10;8.35;;;;;;;-144.73;100.00;54448.75;5012261;28;20049;-74
2023/04/25 03:28:54;;;;;;;49.22;7.63;;;;;;;-144.73;100.00;54415.91;5024787;28;20476;-74
2023/04/25 03:31:20;;;;;;;52.97;5.43;;;;;;;-144.73;100.00;54436.44;5026585;28;20044;-75
2023/04/25 03:33:45;;;;;;;45.95;6.60;;;;;;;-144.73;100.00;54440.53;5020068;28;20089;-74
2023/04/25 03:36:10;;;;;;;47.10;6.47;;;;;;;-144.73;100.00;54440.53;5017501;28;20037;-74
2023/04/25 03:38:36;;;;;;;39.08;6.40;;;;;;;-144.73;100.00;54436.44;5036769;28;20032;-74
2023/04/25 03:41:02;;;;;;;46.75;6.65;;;;;;;-144.73;100.00;54430.28;5014118;28;20041;-74
2023/04/25 03:43:27;;;;;;;33.03;5.28;;;;;;;-144.73;100.00;54436.44;5029046;28;20025;-74
2023/04/25 03:45:53;;;;;;;34.25;5.45;;;;;;;-144.73;100.00;54452.84;5029351;28;20037;-74
2023/04/25 03:48:21;;;;;;;42.00;6.63;;;;;;;-144.73;99.47;54452.84;5030032;28;20052;-74
2023/04/25 03:50:47;;;;;;;47.85;6.80;;;;;;;-144.73;99.68;54432.31;5030543;28;20041;-74
2023/04/25 03:53:12;;;;;;;43.30;6.93;;;;;;;-144.73;99.32;54467.22;5013825;28;20036;-74
2023/04/25 03:55:37;;;;;;;40.28;7.82;;;;;;;-144.73;98.86;54407.69;5028811;28;20029;-75
2023/04/25 03:58:03;;;;;;;52.35;6.88;;;;;;;-144.73;97.57;54411.81;5013007;28;20028;-73
2023/04/25 04:00:28;;;;;;;41.05;6.03;;;;;;;-144.73;96.40;54444.66;5029648;28;20127;-74
2023/04/25 04:02:54;;;;;;;30.98;5.35;;;;;;;-144.73;95.75;54424.13;5030065;28;20017;-73
2023/04/25 04:05:19;;;;;;;33.45;6.10;;;;;;;-144.73;96.24;54426.16;5028794;28;20045;-73
2023/04/25 04:07:44;;;;;;;31.63;5.90;;;;;;;-144.73;96.89;54391.28;5029178;28;20030;-73
2023/04/25 04:10:10;;;;;;;28.42;5.28;;;;;;;-144.73;96.56;54362.53;5018445;28;20037;-72
2023/04/25 04:12:36;;;;;;;47.80;6.55;;;;;;;-144.73;95.58;54407.69;5011814;28;20022;-73
2023/04/25 04:15:05;;;;;;;40.88;6.05;;;;;;;-144.73;96.66;54452.84;5014546;28;20039;-74
2023/04/25 04:17:31;;;;;;;46.22;7.78;;;;;;;-144.73;96.79;54428.22;5033025;28;20029;-73
2023/04/25 04:19:57;;;;;;;38.40;5.57;;;;;;;-144.73;95.17;54456.97;5026863;28;20048;-73
2023/04/25 04:22:23;;;;;;;31.10;4.93;;;;;;;-144.73;95.44;54411.81;5011935;28;20044;-73
2023/04/25 04:24:49;;;;;;;35.33;5.60;;;;;;;-144.73;94.00;54432.31;5014637;28;20384;-74
2023/04/25 04:27:17;;;;;;;30.27;4.63;;;;;;;-144.73;94.71;54436.44;5026412;28;20029;-74
2023/04/25 04:29:43;;;;;;;42.40;4.97;;;;;;;-144.73;93.84;54424.13;5007257;28;20486;-74
2023/04/25 04:32:08;;;;;;;34.58;6.05;;;;;;;-144.73;93.74;54440.53;5014609;28;20028;-73
2023/04/25 04:34:34;;;;;;;28.92;5.45;;;;;;;-144.73;93.70;54428.22;5012853;28;20085;-73
2023/04/25 04:37:00;;;;;;;34.20;5.35;;;;;;;-144.73;94.04;54411.81;5029598;28;20029;-73
2023/04/25 04:39:25;;;;;;;54.75;7.05;;;;;;;-144.73;93.54;54428.22;5027997;28;20455;-73
2023/04/25 04:41:51;;;;;;;33.88;6.15;;;;;;;-144.73;93.83;54383.06;5025251;28;20026;-74
2023/04/25 04:44:16;;;;;;;33.03;5.93;;;;;;;-144.73;91.14;54391.28;5018619;28;20061;-73
2023/04/25 04:46:42;;;;;;;39.78;6.35;;;;;;;-144.73;91.76;54407.69;5026460;28;20041;-73
2023/04/25 04:49:12;;;;;;;39.20;5.30;;;;;;;-144.73;92.05;54446.69;5010267;28;20032;-72
2023/04/25 04:51:38;;;;;;;36.17;5.38;;;;;;;-144.73;91.88;54444.66;5028826;28;20025;-74
2023/04/25 04:54:03;;;;;;;31.13;4.88;;;;;;;-144.73;92.31;54432.31;5012262;28;20021;-73
2023/04/25 04:56:30;;;;;;;26.42;4.93;;;;;;;-144.73;90.00;54395.38;5029340;28;20025;-73
2023/04/25 04:58:56;;;;;;;41.13;5.07;;;;;;;-144.73;91.75;54444.66;5029597;28;20049;-72
2023/04/25 05:01:22;;;;;;;30.83;4.82;;;;;;;-144.73;90.82;54407.69;5026611;28;20057;-73
2023/04/25 05:03:47;;;;;;;44.15;6.03;;;;;;;-144.73;90.04;54426.16;5030843;28;20033;-72
2023/04/25 05:06:13;;;;;;;43.88;6.53;;;;;;;-144.73;89.41;54411.81;5028481;28;20048;-73
2023/04/25 05:08:38;;;;;;;31.02;5.50;;;;;;;-144.73;91.18;54420.00;5029611;28;20036;-73
2023/04/25 05:11:03;;;;;;;28.48;5.75;;;;;;;-144.73;90.00;54399.50;5012537;28;20551;-72
2023/04/25 05:13:29;;;;;;;20.15;4.22;;;;;;;-144.73;88.65;54424.13;5029666;28;20056;-72
2023/04/25 05:15:54;;;;;;;28.15;4.72;;;;;;;-144.73;90.14;54407.69;5029048;28;20559;-74
2023/04/25 05:18:20;;;;;;;38.17;5.72;;;;;;;-144.73;89.27;54424.13;5012222;28;20033;-72
2023/04/25 05:20:45;;;;;;;39.55;6.47;;;;;;;-144.73;89.52;54436.44;5012627;28;20069;-72
2023/04/25 05:23:11;;;;;;;33.85;5.63;;;;;;;-144.73;92.20;54440.53;5007235;28;20037;-72
2023/04/25 05:25:36;;;;;;;40.20;7.00;;;;;;;-144.73;96.71;54420.00;5028774;28;20113;-73
2023/04/25 05:28:01;;;;;;;27.45;5.13;;;;;;;-144.73;98.34;54411.81;5024767;28;20025;-73
2023/04/25 05:30:27;;;;;;;34.55;6.82;;;;;;;-144.73;99.71;54395.38;5024816;28;20507;-72
2023/04/25 05:32:52;;;;;;;32.35;5.15;;;;;;;-144.73;100.00;54436.44;5013764;28;20032;-73
2023/04/25 05:35:17;;;;;;;32.70;5.15;;;;;;;-144.73;100.00;54444.66;5013932;28;20092;-72
2023/04/25 05:37:43;;;;;;;33.78;4.80;;;;;;;-144.73;100.00;54448.75;5024594;28;20030;-73
2023/04/25 05:40:09;;;;;;;24.35;5.13;;;;;;;-144.73;100.00;54389.22;5026092;28;20038;-73
2023/04/25 05:42:34;;;;;;;41.67;5.80;;;;;;;-144.73;100.00;54415.91;5028797;28;20065;-72
2023/04/25 05:45:00;;;;;;;27.73;5.30;;;;;;;-144.73;100.00;54452.84;5013335;28;20065;-72
2023/04/25 05:47:26;;;;;;;37.65;5.47;;;;;;;-144.73;100.00;54415.91;5023245;28;20033;-72
2023/04/25 05:49:51;;;;;;;34.90;4.90;;;;;;;-144.73;100.00;54424.13;5027905;28;20152;-72
2023/04/25 05:52:16;;;;;;;29.55;4.50;;;;;;;-144.73;100.00;54411.81;5011998;28;20433;-72
2023/04/25 05:54:42;;;;;;;33.30;5.78;;;;;;;-144.73;100.00;54407.69;5028851;28;20051;-73
2023/04/25 05:57:07;;;;;;;44.75;5.88;;;;;;;-144.73;99.29;54407.69;5011842;28;20036;-71
2023/04/25 05:59:32;;;;;;;43.80;6.68;;;;;;;-144.73;98.83;54420.00;5014743;28;20038;-73
2023/04/25 06:01:58;;;;;;;40.03;5.63;;;;;;;-144.73;98.49;54407.69;5016472;28;20025;-72
2023/04/25 06:04:24;;;;;;;31.20;4.82;;;;;;;-144.73;98.57;54411.81;5030575;28;20109;-72
2023/04/25 06:06:50;;;;;;;43.75;5.47;;;;;;;-144.73;97.17;54407.69;5036043;28;20029;-72
2023/04/25 06:09:15;;;;;;;41.22;6.03;;;;;;;-144.73;97.06;54407.69;5031470;28;20051;-71
2023/04/25 06:11:41;;;;;;;31.88;5.25;;;;;;;-144.73;96.51;54411.81;5016451;28;20048;-72
2023/04/25 06:14:07;;;;;;;44.72;6.45;;;;;;;-144.73;96.02;54465.16;5032055;28;20052;-69
2023/04/25 06:16:32;;;;;;;30.42;4.88;;;;;;;-144.73;96.29;54411.81;5032313;28;20025;-69
2023/04/25 06:18:58;;;;;;;37.08;5.68;;;;;;;-144.73;96.18;54428.22;5017742;28;20033;-67
2023/04/25 06:21:23;;;;;;;41.72;5.70;;;;;;;-144.73;94.25;54440.53;5031308;28;20049;-68
2023/04/25 06:23:48;;;;;;;32.15;5.07;;;;;;;-144.73;95.97;54432.31;5018166;28;20037;-68
2023/04/25 06:26:14;;;;;;;39.10;4.57;;;;;;;-144.73;95.47;54436.44;5014067;28;20041;-68
2023/04/25 06:28:39;;;;;;;28.17;5.07;;;;;;;-144.73;94.74;54430.28;5033255;28;20025;-69
2023/04/25 06:31:04;;;;;;;38.92;5.25;;;;;;;-144.73;96.15;54424.13;5017206;28;20033;-69
2023/04/25 06:33:30;;;;;;;35.88;5.35;;;;;;;-144.73;96.16;54452.84;5003985;28;20037;-68
2023/04/25 06:35:55;;;;;;;39.67;4.68;;;;;;;-144.73;96.40;54428.22;5006264;28;20061;-69
2023/04/25 06:38:20;;;;;;;26.38;4.93;;;;;;;-144.73;96.93;54399.50;5022677;28;20029;-69
2023/04/25 06:40:46;;;;;;;28.13;5.00;;;;;;;-144.73;98.76;54428.22;4999346;28;20049;-68
2023/04/25 06:43:11;;;;;;;29.73;5.07;;;;;;;-144.73;99.30;54444.66;5026528;28;20061;-68
2023/04/25 06:45:36;;;;;;;35.03;6.07;;;;;;;-144.73;99.78;54426.16;5013236;28;20037;-68
2023/04/25 06:48:02;;;;;;;34.85;5.10;;;;;;;-144.73;100.00;54409.75;5027137;28;20100;-68
2023/04/25 06:50:27;;;;;;;46.90;7.65;;;;;;;-144.73;99.81;54440.53;5027055;28;20080;-68
2023/04/25 06:52:53;;;;;;;25.55;4.80;;;;;;;-144.73;100.00;54444.66;5027030;28;20029;-69
2023/04/25 06:55:18;;;;;;;28.05;4.28;;;;;;;-144.73;100.00;54391.28;5026284;28;20575;-69
2023/04/25 06:57:43;;;;;;;23.90;4.35;;;;;;;-144.73;100.00;54424.13;5009164;28;20084;-69
2023/04/25 07:00:09;;;;;;;30.63;6.10;;;;;;;-144.73;99.13;54438.50;5023872;28;20128;-69
2023/04/25 07:02:35;;;;;;;22.40;4.75;;;;;;;-144.73;99.15;54370.75;5025306;28;20137;-68
2023/04/25 07:05:03;;;;;;;38.75;5.63;;;;;;;-144.73;98.00;54378.97;5009082;28;20049;-70
2023/04/25 07:07:32;;;;;;;29.25;4.70;;;;;;;-144.73;97.50;54434.38;5027458;28;20025;-68
2023/04/25 07:09:57;;;;;;;30.38;4.47;;;;;;;-144.73;98.10;54436.44;5006345;28;20025;-68
2023/04/25 07:12:22;;;;;;;36.28;5.35;;;;;;;-144.73;97.34;54409.75;5013805;28;20396;-69
2023/04/25 07:14:48;;;;;;;36.05;5.10;;;;;;;-144.73;97.07;54432.31;5029292;28;20036;-69
2023/04/25 07:17:13;;;;;;;26.67;4.60;;;;;;;-144.73;95.97;54411.81;5026543;28;20029;-70
2023/04/25 07:19:39;;;;;;;22.75;3.70;;;;;;;-144.73;96.18;54395.38;5030558;28;20399;-69
2023/04/25 07:22:06;;;;;;;30.30;6.32;;;;;;;-144.73;94.77;54436.44;5027313;28;20052;-68
2023/04/25 07:24:31;;;;;;;20.92;3.88;;;;;;;-144.73;93.88;54444.66;5027843;28;20048;-68
2023/04/25 07:26:57;;;;;;;27.23;4.88;;;;;;;-144.73;95.82;54432.31;5029609;28;20034;-69
2023/04/25 07:29:23;;;;;;;23.42;4.00;;;;;;;-144.73;100.00;54409.75;5025198;28;20172;-69
2023/04/25 07:31:48;;;;;;;23.80;4.30;;;;;;;-144.73;100.00;54389.22;5014678;28;20029;-69
2023/04/25 07:34:14;;;;;;;31.23;4.28;;;;;;;-144.73;100.00;54420.00;5026423;28;20056;-69
2023/04/25 07:36:39;;;;;;;28.10;3.70;;;;;;;-144.73;100.00;54395.38;5014904;28;20087;-70
2023/04/25 07:39:05;;;;;;;29.17;4.55;;;;;;;-144.73;100.00;54444.66;5027116;28;20026;-68
2023/04/25 07:41:30;;;;;;;31.08;5.07;;;;;;;-144.73;100.00;54417.97;5032340;28;20069;-69
2023/04/25 07:43:55;;;;;;;44.47;5.13;;;;;;;-144.73;100.00;54411.81;5030247;28;20041;-69
2023/04/25 07:46:21;;;;;;;39.78;4.65;;;;;;;-144.73;100.00;54424.13;5033001;28;20041;-69
2023/04/25 07:48:46;;;;;;;29.60;4.53;;;;;;;-144.73;100.00;54407.69;5028602;28;20116;-68
2023/04/25 07:51:12;;;;;;;25.83;3.65;;;;;;;-144.73;100.00;54428.22;5012308;28;20072;-69
2023/04/25 07:53:38;;;;;;;28.67;4.63;;;;;;;-144.73;100.00;54391.28;5031259;28;20068;-69
2023/04/25 07:56:03;;;;;;;18.75;3.78;;;;;;;-144.73;100.00;54428.22;5027914;28;20197;-68
2023/04/25 07:58:28;;;;;;;23.30;4.45;;;;;;;-144.73;100.00;54450.81;5029368;28;20036;-69
2023/04/25 08:00:54;;;;;;;36.08;4.13;;;;;;;-144.73;100.00;54383.06;5027686;28;20041;-69
2023/04/25 08:03:21;;;;;;;25.83;4.82;;;;;;;-144.73;99.05;54448.75;5009564;28;20063;-69
2023/04/25 08:05:46;;;;;;;26.13;3.60;;;;;;;-144.73;99.12;54428.22;5026234;28;20037;-69
2023/04/25 08:08:11;;;;;;;32.33;3.88;;;;;;;-144.73;97.68;54395.38;5026278;28;20116;-70
2023/04/25 08:10:37;;;;;;;31.90;4.53;;;;;;;-144.73;95.56;54432.31;5028080;28;20041;-68
2023/04/25 08:13:02;;;;;;;34.20;4.78;;;;;;;-144.73;95.34;54407.69;5028415;28;20076;-70
2023/04/25 08:15:28;;;;;;;26.58;5.03;;;;;;;-144.73;93.32;54452.84;5010473;28;20029;-69
2023/04/25 08:17:53;;;;;;;37.50;4.55;;;;;;;-144.73;93.95;54407.69;5027462;28;20419;-69
2023/04/25 08:20:18;;;;;;;23.02;3.80;;;;;;;-144.73;94.74;54397.44;5028135;28;20048;-68
2023/04/25 08:22:44;;;;;;;24.83;4.40;;;;;;;-144.73;93.90;54440.53;5031293;28;20025;-69
2023/04/25 08:25:09;;;;;;;25.55;4.95;;;;;;;-144.73;94.02;54411.81;5032501;28;20036;-69
2023/04/25 08:27:34;;;;;;;30.65;5.00;;;;;;;-144.73;95.68;54448.75;5031443;28;20052;-70
2023/04/25 08:30:01;;;;;;;25.75;4.05;;;;;;;-144.73;99.86;54422.06;5028128;28;20036;-70
2023/04/25 08:32:27;;;;;;;26.42;3.42;;;;;;;-144.73;100.00;54448.75;5028601;28;20029;-69
2023/04/25 08:34:54;;;;;;;19.88;3.95;;;;;;;-144.73;100.00;54399.50;5025884;28;20057;-69
2023/04/25 08:37:20;;;;;;;23.38;3.33;;;;;;;-144.73;100.00;54395.38;5013510;28;20028;-69
2023/04/25 08:39:46;;;;;;;22.98;3.33;;;;;;;-144.73;100.00;54432.31;5015338;28;20033;-69
2023/04/25 08:42:12;;;;;;;20.50;3.13;;;;;;;-144.73;100.00;54391.28;5030343;28;20025;-69
2023/04/25 08:44:38;;;;;;;29.15;3.83;;;;;;;-144.73;100.00;54436.44;5030827;28;20041;-69
2023/04/25 08:47:04;;;;;;;25.27;3.53;;;;;;;-144.73;100.00;54387.19;5031639;28;20029;-68
2023/04/25 08:49:34;;;;;;;24.83;3.65;;;;;;;-144.73;100.00;54461.06;5030664;28;20430;-69
2023/04/25 08:52:07;;;;;;;19.15;3.35;;;;;;;-144.73;100.00;54415.91;5031183;28;20121;-69
2023/04/25 08:54:33;;;;;;;22.55;4.15;;;;;;;-144.73;100.00;54452.84;5030821;28;20030;-69
2023/04/25 08:57:03;;;;;;;30.92;4.55;;;;;;;-144.73;100.00;54452.84;5031364;28;20447;-68
2023/04/25 08:59:30;;;;;;;24.23;3.35;;;;;;;-144.73;100.00;54415.91;5014661;28;20034;-69
2023/04/25 09:01:55;;;;;;;28.85;4.63;;;;;;;-144.73;100.00;54397.44;5014652;28;20025;-68
2023/04/25 09:04:20;;;;;;;35.72;3.97;;;;;;;-144.73;100.00;54391.28;5030611;28;20037;-69
2023/04/25 09:06:46;;;;;;;24.45;4.47;;;;;;;-144.73;100.00;54407.69;5014147;28;20535;-69
2023/04/25 09:09:12;;;;;;;27.02;3.60;;;;;;;-144.73;100.00;54415.91;5013319;28;20029;-69
2023/04/25 09:11:37;;;;;;;28.83;3.90;;;;;;;-144.73;99.72;54407.69;5012248;28;20124;-70
2023/04/25 09:14:22;;;;;;;22.90;3.85;;;;;;;-144.73;98.43;54432.31;5025983;28;20144;-68
2023/04/25 09:16:57;;;;;;;26.83;4.53;;;;;;;-144.73;95.57;54420.00;5030564;28;20037;-68
2023/04/25 09:19:26;;;;;;;22.67;4.40;;;;;;;-144.73;95.93;54420.00;5016285;28;20041;-68
2023/04/25 09:21:56;;;;;;;35.25;4.05;;;;;;;-144.73;95.26;54452.84;5015142;28;20033;-68
2023/04/25 09:24:45;;;;;;;18.70;3.72;;;;;;;-144.73;94.00;54387.19;5009228;28;20038;-68
2023/04/25 09:27:13;;;;;;;18.00;3.20;;;;;;;-144.73;94.10;54440.53;5010613;28;20043;-68
2023/04/25 09:29:40;;;;;;;16.30;2.65;;;;;;;-144.73;92.15;54407.69;5014671;28;20038;-69
2023/04/25 09:32:25;;;;;;;18.00;3.58;;;;;;;-144.73;90.31;54374.84;5012524;28;20022;-69
2023/04/25 09:34:55;;;;;;;22.20;4.47;;;;;;;-144.73;87.96;54407.69;5014211;28;20078;-69
2023/04/25 09:37:29;;;;;;;17.13;3.17;;;;;;;-144.73;87.16;54420.00;5029754;28;20041;-69
2023/04/25 09:40:02;;;;;;;27.50;3.60;;;;;;;-144.73;86.98;54436.44;5015669;28;20048;-68
2023/04/25 09:42:31;;;;;;;19.48;2.95;;;;;;;-144.73;87.85;54395.38;5027112;28;20120;-67
2023/04/25 09:44:57;;;;;;;21.77;3.70;;;;;;;-144.73;87.49;54430.28;5010926;28;20105;-69
2023/04/25 09:47:26;;;;;;;23.25;3.88;;;;;;;-144.73;92.62;54420.00;5012369;28;20025;-70
2023/04/25 09:49:58;;;;;;;14.18;2.80;;;;;;;-144.73;100.00;54434.38;5029630;28;20112;-70
2023/04/25 09:52:24;;;;;;;;;;;;;;;-144.73;100.00;54465.16;5033945;28;20152;-70
2023/04/25 09:54:50;;;;;;;15.85;2.92;;;;;;;-144.73;100.00;54417.97;5030676;28;19917;-69
2023/04/25 09:57:21;;;;;;;23.58;2.78;;;;;;;-144.73;100.00;54411.81;5032183;28;20032;-69
2023/04/25 09:59:54;;;;;;;13.75;2.53;;;;;;;-144.73;100.00;54391.28;5026617;28;20037;-69
2023/04/25 10:02:22;;;;;;;24.92;3.83;;;;;;;-144.73;100.00;54387.19;5032289;28;20057;-69
2023/04/25 10:04:52;;;;;;;34.97;4.18;;;;;;;-144.73;100.00;54407.69;5016315;28;20041;-69
2023/04/25 10:07:18;;;;;;;16.90;2.90;;;;;;;-144.73;100.00;54391.28;5015218;28;20037;-68
2023/04/25 10:09:48;;;;;;;23.58;3.63;;;;;;;-144.73;100.00;54399.50;5020785;28;20503;-69
2023/04/25 10:12:13;;;;;;;21.17;3.45;;;;;;;-144.73;100.00;54391.28;5012752;28;20095;-68
2023/04/25 10:14:39;;;;;;;23.25;3.55;;;;;;;-144.73;100.00;54444.66;5034049;28;20447;-69
2023/04/25 10:17:05;;;;;;;30.00;3.83;;;;;;;-144.73;100.00;54411.81;5012383;28;20033;-68
2023/04/25 10:19:32;;;;;;;24.58;3.92;;;;;;;-144.73;100.00;54411.81;5029681;28;20041;-68
2023/04/25 10:22:14;;;;;;;16.67;2.67;;;;;;;-144.73;99.86;54395.38;5028462;28;20087;-67
2023/04/25 10:24:40;;;;;;;20.70;3.40;;;;;;;-144.73;94.98;54411.81;5030562;28;20128;-68
2023/04/25 10:27:07;;;;;;;13.00;2.20;;;;;;;-144.73;91.17;54391.28;5014686;28;20104;-68
2023/04/25 10:29:32;;;;;;;15.30;2.78;;;;;;;-144.73;87.18;54391.28;5010527;28;20045;-68
2023/04/25 10:31:57;;;;;;;23.27;2.95;;;;;;;-144.73;83.43;54452.84;5029801;28;20035;-69
2023/04/25 10:34:37;;;;;;;24.75;3.38;;;;;;;-144.73;82.93;54407.69;5027614;28;20045;-68
2023/04/25 10:37:03;;;;;;;11.90;2.53;;;;;;;-144.73;79.77;54483.66;5029222;28;20068;-68
2023/04/25 10:39:29;;;;;;;16.05;3.22;;;;;;;-144.73;80.79;54358.44;5029385;28;20039;-69
2023/04/25 10:41:58;;;;;;;18.73;3.00;;;;;;;-144.73;81.85;54436.44;5028346;28;20033;-69
2023/04/25 10:44:28;;;;;;;27.58;3.22;;;;;;;-144.73;80.89;54411.81;5014913;28;20117;-68
2023/04/25 10:46:58;;;;;;;16.75;2.78;;;;;;;-144.73;78.51;54378.97;5031381;28;20130;-69
2023/04/25 10:49:50;;;;;;;19.30;3.90;;;;;;;-144.73;77.81;54335.88;5011783;28;20033;-69
2023/04/25 10:52:15;;;;;;;;;;;;;;;-144.73;78.07;54444.66;5032211;28;20156;-69
2023/04/25 10:54:55;;;;;;;23.40;3.55;;;;;;;-144.73;78.33;54417.97;5034064;28;19977;-69
2023/04/25 10:57:29;;;;;;;24.10;3.38;;;;;;;-144.73;78.16;54407.69;5019445;28;20049;-69
2023/04/25 11:00:05;;;;;;;26.48;3.28;;;;;;;-144.73;79.49;54422.06;5029278;28;20058;-69
2023/04/25 11:02:31;;;;;;;18.98;2.67;;;;;;;-144.73;77.17;54426.16;5033427;28;20025;-69